sensor_id;sensor_type;location;lat;lon;timestamp;pressure;altitude;pressure_sealevel;temperature;humidity
59939;BME280;45801;51.810;19.444;2024-02-26T00:00:08;98160.73;;;8.06;62.37
59939;BME280;45801;51.810;19.444;2024-02-26T00:02:57;98163.71;;;8.02;62.39
59939;BME280;45801;51.810;19.444;2024-02-26T00:05:24;98165.34;;;7.99;62.47
59939;BME280;45801;51.810;19.444;2024-02-26T00:07:50;98163.09;;;7.94;62.90
59939;BME280;45801;51.810;19.444;2024-02-26T00:10:17;98160.24;;;7.88;62.92
59939;BME280;45801;51.810;19.444;2024-02-26T00:12:44;98153.33;;;7.85;62.82
59939;BME280;45801;51.810;19.444;2024-02-26T00:15:11;98150.73;;;7.86;62.99
59939;BME280;45801;51.810;19.444;2024-02-26T00:17:38;98149.19;;;7.86;63.12
59939;BME280;45801;51.810;19.444;2024-02-26T00:20:05;98146.74;;;7.86;63.29
59939;BME280;45801;51.810;19.444;2024-02-26T00:22:35;98141.86;;;7.86;63.37
59939;BME280;45801;51.810;19.444;2024-02-26T00:25:02;98144.25;;;7.85;63.49
59939;BME280;45801;51.810;19.444;2024-02-26T00:27:28;98142.35;;;7.85;63.42
59939;BME280;45801;51.810;19.444;2024-02-26T00:29:55;98144.32;;;7.86;63.33
59939;BME280;45801;51.810;19.444;2024-02-26T00:32:22;98145.92;;;7.87;63.16
59939;BME280;45801;51.810;19.444;2024-02-26T00:34:48;98143.85;;;7.88;63.06
59939;BME280;45801;51.810;19.444;2024-02-26T00:37:15;98146.70;;;7.89;63.33
59939;BME280;45801;51.810;19.444;2024-02-26T00:39:41;98145.11;;;7.89;63.26
59939;BME280;45801;51.810;19.444;2024-02-26T00:42:08;98143.66;;;7.87;63.11
59939;BME280;45801;51.810;19.444;2024-02-26T00:44:34;98143.07;;;7.86;63.07
59939;BME280;45801;51.810;19.444;2024-02-26T00:47:01;98144.88;;;7.82;63.33
59939;BME280;45801;51.810;19.444;2024-02-26T00:49:28;98144.44;;;7.80;63.32
59939;BME280;45801;51.810;19.444;2024-02-26T00:51:55;98141.38;;;7.77;63.49
59939;BME280;45801;51.810;19.444;2024-02-26T00:54:22;98143.20;;;7.74;63.54
59939;BME280;45801;51.810;19.444;2024-02-26T00:56:48;98136.91;;;7.74;63.38
59939;BME280;45801;51.810;19.444;2024-02-26T00:59:18;98134.05;;;7.72;63.33
59939;BME280;45801;51.810;19.444;2024-02-26T01:01:45;98138.14;;;7.70;63.16
59939;BME280;45801;51.810;19.444;2024-02-26T01:04:11;98138.73;;;7.67;63.37
59939;BME280;45801;51.810;19.444;2024-02-26T01:06:38;98138.39;;;7.63;63.31
59939;BME280;45801;51.810;19.444;2024-02-26T01:09:06;98136.88;;;7.59;63.51
59939;BME280;45801;51.810;19.444;2024-02-26T01:11:32;98134.63;;;7.55;63.65
59939;BME280;45801;51.810;19.444;2024-02-26T01:13:59;98133.80;;;7.51;63.55
59939;BME280;45801;51.810;19.444;2024-02-26T01:16:25;98135.64;;;7.49;63.78
59939;BME280;45801;51.810;19.444;2024-02-26T01:18:52;98132.59;;;7.47;63.72
59939;BME280;45801;51.810;19.444;2024-02-26T01:21:20;98134.08;;;7.45;63.52
59939;BME280;45801;51.810;19.444;2024-02-26T01:23:47;98131.55;;;7.42;63.84
59939;BME280;45801;51.810;19.444;2024-02-26T01:26:13;98128.85;;;7.40;63.84
59939;BME280;45801;51.810;19.444;2024-02-26T01:28:40;98132.26;;;7.38;63.93
59939;BME280;45801;51.810;19.444;2024-02-26T01:31:09;98130.41;;;7.36;63.74
59939;BME280;45801;51.810;19.444;2024-02-26T01:33:36;98133.14;;;7.34;63.68
59939;BME280;45801;51.810;19.444;2024-02-26T01:36:03;98132.36;;;7.36;63.77
59939;BME280;45801;51.810;19.444;2024-02-26T01:38:29;98131.08;;;7.49;63.58
59939;BME280;45801;51.810;19.444;2024-02-26T01:40:56;98129.91;;;7.50;63.44
59939;BME280;45801;51.810;19.444;2024-02-26T01:43:23;98133.05;;;7.45;63.35
59939;BME280;45801;51.810;19.444;2024-02-26T01:45:49;98128.45;;;7.39;63.25
59939;BME280;45801;51.810;19.444;2024-02-26T01:48:16;98131.22;;;7.34;63.62
59939;BME280;45801;51.810;19.444;2024-02-26T01:50:42;98128.92;;;7.28;63.66
59939;BME280;45801;51.810;19.444;2024-02-26T01:53:09;98126.52;;;7.24;63.86
59939;BME280;45801;51.810;19.444;2024-02-26T01:55:36;98131.70;;;7.23;63.84
59939;BME280;45801;51.810;19.444;2024-02-26T01:58:03;98135.52;;;7.23;63.98
59939;BME280;45801;51.810;19.444;2024-02-26T02:00:31;98139.45;;;7.21;64.02
59939;BME280;45801;51.810;19.444;2024-02-26T02:02:58;98138.85;;;7.19;64.04
59939;BME280;45801;51.810;19.444;2024-02-26T02:05:25;98135.45;;;7.17;64.01
59939;BME280;45801;51.810;19.444;2024-02-26T02:07:53;98135.02;;;7.15;64.00
59939;BME280;45801;51.810;19.444;2024-02-26T02:10:20;98136.56;;;7.15;64.09
59939;BME280;45801;51.810;19.444;2024-02-26T02:12:49;98139.71;;;7.15;64.04
59939;BME280;45801;51.810;19.444;2024-02-26T02:15:16;98137.45;;;7.15;64.02
59939;BME280;45801;51.810;19.444;2024-02-26T02:17:42;98139.35;;;7.14;64.04
59939;BME280;45801;51.810;19.444;2024-02-26T02:20:15;98139.91;;;7.11;64.14
59939;BME280;45801;51.810;19.444;2024-02-26T02:22:44;98136.92;;;7.06;64.36
59939;BME280;45801;51.810;19.444;2024-02-26T02:25:11;98139.94;;;7.03;64.49
59939;BME280;45801;51.810;19.444;2024-02-26T02:27:39;98141.95;;;7.00;64.51
59939;BME280;45801;51.810;19.444;2024-02-26T02:30:06;98143.48;;;7.00;64.63
59939;BME280;45801;51.810;19.444;2024-02-26T02:32:34;98139.96;;;6.99;64.73
59939;BME280;45801;51.810;19.444;2024-02-26T02:35:02;98137.96;;;6.96;64.66
59939;BME280;45801;51.810;19.444;2024-02-26T02:37:29;98138.05;;;6.95;64.88
59939;BME280;45801;51.810;19.444;2024-02-26T02:39:55;98139.62;;;6.95;65.26
59939;BME280;45801;51.810;19.444;2024-02-26T02:42:24;98137.85;;;6.94;65.30
59939;BME280;45801;51.810;19.444;2024-02-26T02:44:53;98143.23;;;6.94;65.36
59939;BME280;45801;51.810;19.444;2024-02-26T02:47:19;98144.08;;;6.93;65.67
59939;BME280;45801;51.810;19.444;2024-02-26T02:49:46;98146.67;;;6.93;65.78
59939;BME280;45801;51.810;19.444;2024-02-26T02:52:12;98145.23;;;6.91;65.69
59939;BME280;45801;51.810;19.444;2024-02-26T02:54:39;98144.84;;;6.90;65.67
59939;BME280;45801;51.810;19.444;2024-02-26T02:57:08;98145.83;;;6.89;65.75
59939;BME280;45801;51.810;19.444;2024-02-26T02:59:37;98144.80;;;6.85;65.72
59939;BME280;45801;51.810;19.444;2024-02-26T03:02:04;98146.02;;;6.80;65.70
59939;BME280;45801;51.810;19.444;2024-02-26T03:04:31;98149.60;;;6.79;65.75
59939;BME280;45801;51.810;19.444;2024-02-26T03:06:58;98148.77;;;6.75;65.57
59939;BME280;45801;51.810;19.444;2024-02-26T03:09:25;98147.65;;;6.73;65.62
59939;BME280;45801;51.810;19.444;2024-02-26T03:11:52;98148.36;;;6.73;65.68
59939;BME280;45801;51.810;19.444;2024-02-26T03:14:19;98146.14;;;6.70;65.62
59939;BME280;45801;51.810;19.444;2024-02-26T03:16:45;98140.91;;;6.66;65.82
59939;BME280;45801;51.810;19.444;2024-02-26T03:19:15;98139.66;;;6.61;65.92
59939;BME280;45801;51.810;19.444;2024-02-26T03:21:44;98139.84;;;6.56;66.11
59939;BME280;45801;51.810;19.444;2024-02-26T03:24:11;98138.15;;;6.54;66.23
59939;BME280;45801;51.810;19.444;2024-02-26T03:26:39;98138.62;;;6.52;66.18
59939;BME280;45801;51.810;19.444;2024-02-26T03:29:07;98135.92;;;6.50;66.39
59939;BME280;45801;51.810;19.444;2024-02-26T03:31:33;98137.33;;;6.51;66.49
59939;BME280;45801;51.810;19.444;2024-02-26T03:34:00;98138.90;;;6.51;66.51
59939;BME280;45801;51.810;19.444;2024-02-26T03:36:26;98143.27;;;6.52;66.54
59939;BME280;45801;51.810;19.444;2024-02-26T03:38:53;98144.27;;;6.51;66.72
59939;BME280;45801;51.810;19.444;2024-02-26T03:41:19;98137.56;;;6.48;66.84
59939;BME280;45801;51.810;19.444;2024-02-26T03:43:46;98141.20;;;6.48;66.85
59939;BME280;45801;51.810;19.444;2024-02-26T03:46:13;98141.91;;;6.48;66.75
59939;BME280;45801;51.810;19.444;2024-02-26T03:48:43;98141.86;;;6.47;66.77
59939;BME280;45801;51.810;19.444;2024-02-26T03:51:09;98142.16;;;6.46;66.57
59939;BME280;45801;51.810;19.444;2024-02-26T03:53:38;98140.70;;;6.44;66.77
59939;BME280;45801;51.810;19.444;2024-02-26T03:56:12;98145.89;;;6.44;66.90
59939;BME280;45801;51.810;19.444;2024-02-26T03:58:40;98147.08;;;6.43;67.01
59939;BME280;45801;51.810;19.444;2024-02-26T04:01:09;98146.42;;;6.44;66.78
59939;BME280;45801;51.810;19.444;2024-02-26T04:03:35;98148.30;;;6.43;67.23
59939;BME280;45801;51.810;19.444;2024-02-26T04:06:02;98146.38;;;6.43;67.08
59939;BME280;45801;51.810;19.444;2024-02-26T04:08:29;98145.03;;;6.43;67.35
59939;BME280;45801;51.810;19.444;2024-02-26T04:10:56;98147.50;;;6.44;67.20
59939;BME280;45801;51.810;19.444;2024-02-26T04:13:22;98149.08;;;6.45;67.23
59939;BME280;45801;51.810;19.444;2024-02-26T04:15:49;98147.88;;;6.46;67.21
59939;BME280;45801;51.810;19.444;2024-02-26T04:18:15;98149.15;;;6.47;67.38
59939;BME280;45801;51.810;19.444;2024-02-26T04:20:42;98148.83;;;6.47;67.16
59939;BME280;45801;51.810;19.444;2024-02-26T04:23:08;98151.23;;;6.46;67.29
59939;BME280;45801;51.810;19.444;2024-02-26T04:25:35;98146.36;;;6.46;67.41
59939;BME280;45801;51.810;19.444;2024-02-26T04:28:01;98146.04;;;6.47;67.36
59939;BME280;45801;51.810;19.444;2024-02-26T04:30:28;98143.86;;;6.49;67.42
59939;BME280;45801;51.810;19.444;2024-02-26T04:32:55;98146.48;;;6.53;67.29
59939;BME280;45801;51.810;19.444;2024-02-26T04:35:21;98146.06;;;6.56;67.13
59939;BME280;45801;51.810;19.444;2024-02-26T04:37:48;98144.27;;;6.59;67.36
59939;BME280;45801;51.810;19.444;2024-02-26T04:40:14;98146.66;;;6.62;67.24
59939;BME280;45801;51.810;19.444;2024-02-26T04:42:41;98145.70;;;6.64;67.22
59939;BME280;45801;51.810;19.444;2024-02-26T04:45:08;98139.48;;;6.65;66.99
59939;BME280;45801;51.810;19.444;2024-02-26T04:47:34;98140.58;;;6.66;66.68
59939;BME280;45801;51.810;19.444;2024-02-26T04:50:01;98138.69;;;6.67;66.70
59939;BME280;45801;51.810;19.444;2024-02-26T04:52:28;98136.77;;;6.67;66.61
59939;BME280;45801;51.810;19.444;2024-02-26T04:54:55;98135.41;;;6.68;66.65
59939;BME280;45801;51.810;19.444;2024-02-26T04:57:21;98137.04;;;6.65;66.86
59939;BME280;45801;51.810;19.444;2024-02-26T04:59:48;98138.52;;;6.63;66.98
59939;BME280;45801;51.810;19.444;2024-02-26T05:02:15;98138.82;;;6.62;66.99
59939;BME280;45801;51.810;19.444;2024-02-26T05:04:42;98139.27;;;6.60;67.13
59939;BME280;45801;51.810;19.444;2024-02-26T05:07:08;98139.98;;;6.60;67.10
59939;BME280;45801;51.810;19.444;2024-02-26T05:09:35;98140.66;;;6.60;67.05
59939;BME280;45801;51.810;19.444;2024-02-26T05:12:02;98141.03;;;6.61;67.13
59939;BME280;45801;51.810;19.444;2024-02-26T05:14:28;98142.64;;;6.62;67.11
59939;BME280;45801;51.810;19.444;2024-02-26T05:16:55;98144.74;;;6.62;67.38
59939;BME280;45801;51.810;19.444;2024-02-26T05:19:22;98147.45;;;6.64;67.23
59939;BME280;45801;51.810;19.444;2024-02-26T05:21:49;98151.88;;;6.66;67.04
59939;BME280;45801;51.810;19.444;2024-02-26T05:24:17;98152.05;;;6.66;67.13
59939;BME280;45801;51.810;19.444;2024-02-26T05:26:45;98155.21;;;6.67;66.88
59939;BME280;45801;51.810;19.444;2024-02-26T05:29:11;98155.40;;;6.67;66.80
59939;BME280;45801;51.810;19.444;2024-02-26T05:31:38;98159.27;;;6.68;66.82
59939;BME280;45801;51.810;19.444;2024-02-26T05:34:05;98157.63;;;6.71;66.79
59939;BME280;45801;51.810;19.444;2024-02-26T05:36:31;98160.69;;;6.73;66.81
59939;BME280;45801;51.810;19.444;2024-02-26T05:39:00;98166.70;;;6.75;66.51
59939;BME280;45801;51.810;19.444;2024-02-26T05:41:28;98169.42;;;6.74;66.77
59939;BME280;45801;51.810;19.444;2024-02-26T05:43:55;98173.30;;;6.71;66.76
59939;BME280;45801;51.810;19.444;2024-02-26T05:46:22;98175.84;;;6.69;66.85
59939;BME280;45801;51.810;19.444;2024-02-26T05:48:50;98178.02;;;6.67;66.97
59939;BME280;45801;51.810;19.444;2024-02-26T05:51:18;98180.90;;;6.65;66.91
59939;BME280;45801;51.810;19.444;2024-02-26T05:53:44;98185.77;;;6.65;67.06
59939;BME280;45801;51.810;19.444;2024-02-26T05:56:13;98187.98;;;6.64;67.07
59939;BME280;45801;51.810;19.444;2024-02-26T05:58:39;98191.60;;;6.63;67.20
59939;BME280;45801;51.810;19.444;2024-02-26T06:01:06;98193.34;;;6.63;67.16
59939;BME280;45801;51.810;19.444;2024-02-26T06:03:32;98195.27;;;6.64;67.02
59939;BME280;45801;51.810;19.444;2024-02-26T06:06:00;98196.61;;;6.63;67.30
59939;BME280;45801;51.810;19.444;2024-02-26T06:08:26;98198.37;;;6.63;67.30
59939;BME280;45801;51.810;19.444;2024-02-26T06:10:53;98199.98;;;6.64;67.62
59939;BME280;45801;51.810;19.444;2024-02-26T06:13:19;98204.07;;;6.66;67.75
59939;BME280;45801;51.810;19.444;2024-02-26T06:15:47;98205.20;;;6.68;67.61
59939;BME280;45801;51.810;19.444;2024-02-26T06:18:13;98207.04;;;6.70;67.59
59939;BME280;45801;51.810;19.444;2024-02-26T06:20:40;98209.90;;;6.72;67.87
59939;BME280;45801;51.810;19.444;2024-02-26T06:23:07;98208.95;;;6.75;67.75
59939;BME280;45801;51.810;19.444;2024-02-26T06:25:33;98207.53;;;6.78;67.77
59939;BME280;45801;51.810;19.444;2024-02-26T06:28:00;98207.13;;;6.81;67.82
59939;BME280;45801;51.810;19.444;2024-02-26T06:30:26;98205.20;;;6.85;67.75
59939;BME280;45801;51.810;19.444;2024-02-26T06:32:53;98206.02;;;6.88;67.91
59939;BME280;45801;51.810;19.444;2024-02-26T06:35:19;98211.02;;;6.91;67.87
59939;BME280;45801;51.810;19.444;2024-02-26T06:37:46;98213.92;;;6.94;67.91
59939;BME280;45801;51.810;19.444;2024-02-26T06:40:13;98217.70;;;6.97;67.79
59939;BME280;45801;51.810;19.444;2024-02-26T06:42:40;98216.33;;;7.02;67.78
59939;BME280;45801;51.810;19.444;2024-02-26T06:45:06;98214.75;;;7.06;67.78
59939;BME280;45801;51.810;19.444;2024-02-26T06:47:33;98213.33;;;7.09;67.93
59939;BME280;45801;51.810;19.444;2024-02-26T06:50:00;98213.66;;;7.13;67.85
59939;BME280;45801;51.810;19.444;2024-02-26T06:52:27;98213.32;;;7.18;67.68
59939;BME280;45801;51.810;19.444;2024-02-26T06:54:53;98213.70;;;7.23;67.70
59939;BME280;45801;51.810;19.444;2024-02-26T06:57:20;98216.31;;;7.27;67.72
59939;BME280;45801;51.810;19.444;2024-02-26T06:59:48;98215.75;;;7.31;67.66
59939;BME280;45801;51.810;19.444;2024-02-26T07:02:16;98215.19;;;7.34;67.80
59939;BME280;45801;51.810;19.444;2024-02-26T07:04:43;98213.08;;;7.38;67.34
59939;BME280;45801;51.810;19.444;2024-02-26T07:07:10;98216.57;;;7.43;67.43
59939;BME280;45801;51.810;19.444;2024-02-26T07:09:37;98222.52;;;7.48;67.68
59939;BME280;45801;51.810;19.444;2024-02-26T07:12:03;98221.70;;;7.54;67.74
59939;BME280;45801;51.810;19.444;2024-02-26T07:14:30;98223.71;;;7.61;67.71
59939;BME280;45801;51.810;19.444;2024-02-26T07:16:57;98224.66;;;7.67;67.58
59939;BME280;45801;51.810;19.444;2024-02-26T07:19:24;98224.98;;;7.76;67.37
59939;BME280;45801;51.810;19.444;2024-02-26T07:21:51;98226.89;;;7.85;67.31
59939;BME280;45801;51.810;19.444;2024-02-26T07:24:17;98226.49;;;7.92;67.24
59939;BME280;45801;51.810;19.444;2024-02-26T07:26:44;98225.95;;;8.01;67.06
59939;BME280;45801;51.810;19.444;2024-02-26T07:29:10;98224.52;;;8.10;66.79
59939;BME280;45801;51.810;19.444;2024-02-26T07:31:37;98221.34;;;8.18;66.82
59939;BME280;45801;51.810;19.444;2024-02-26T07:34:03;98219.54;;;8.27;66.59
59939;BME280;45801;51.810;19.444;2024-02-26T07:36:30;98220.77;;;8.36;66.37
59939;BME280;45801;51.810;19.444;2024-02-26T07:38:56;98222.95;;;8.43;66.17
59939;BME280;45801;51.810;19.444;2024-02-26T07:41:23;98222.85;;;8.51;66.42
59939;BME280;45801;51.810;19.444;2024-02-26T07:43:50;98224.33;;;8.57;65.96
59939;BME280;45801;51.810;19.444;2024-02-26T07:46:16;98226.18;;;8.66;66.05
59939;BME280;45801;51.810;19.444;2024-02-26T07:48:42;98230.52;;;8.75;65.87
59939;BME280;45801;51.810;19.444;2024-02-26T07:51:12;98233.27;;;8.84;65.85
59939;BME280;45801;51.810;19.444;2024-02-26T07:53:38;98230.56;;;8.92;65.83
59939;BME280;45801;51.810;19.444;2024-02-26T07:56:05;98229.10;;;9.00;65.71
59939;BME280;45801;51.810;19.444;2024-02-26T07:58:32;98227.98;;;9.09;65.42
59939;BME280;45801;51.810;19.444;2024-02-26T08:00:59;98227.05;;;9.18;65.08
59939;BME280;45801;51.810;19.444;2024-02-26T08:03:26;98229.96;;;9.27;64.78
59939;BME280;45801;51.810;19.444;2024-02-26T08:05:53;98222.90;;;9.35;64.49
59939;BME280;45801;51.810;19.444;2024-02-26T08:08:19;98224.86;;;9.42;64.44
59939;BME280;45801;51.810;19.444;2024-02-26T08:10:46;98225.65;;;9.51;64.23
59939;BME280;45801;51.810;19.444;2024-02-26T08:13:12;98228.21;;;9.60;64.01
59939;BME280;45801;51.810;19.444;2024-02-26T08:15:40;98226.23;;;9.70;63.79
59939;BME280;45801;51.810;19.444;2024-02-26T08:18:06;98224.96;;;9.80;63.72
59939;BME280;45801;51.810;19.444;2024-02-26T08:20:34;98232.95;;;9.89;63.29
59939;BME280;45801;51.810;19.444;2024-02-26T08:23:01;98233.70;;;9.97;63.03
59939;BME280;45801;51.810;19.444;2024-02-26T08:25:28;98228.23;;;10.07;62.87
59939;BME280;45801;51.810;19.444;2024-02-26T08:27:55;98228.52;;;10.17;62.81
59939;BME280;45801;51.810;19.444;2024-02-26T08:30:21;98229.46;;;10.26;62.57
59939;BME280;45801;51.810;19.444;2024-02-26T08:32:48;98227.09;;;10.34;62.60
59939;BME280;45801;51.810;19.444;2024-02-26T08:35:15;98225.92;;;10.42;62.22
59939;BME280;45801;51.810;19.444;2024-02-26T08:37:47;98227.46;;;10.48;61.78
59939;BME280;45801;51.810;19.444;2024-02-26T08:40:14;98227.68;;;10.56;61.45
59939;BME280;45801;51.810;19.444;2024-02-26T08:42:41;98229.10;;;10.63;61.30
59939;BME280;45801;51.810;19.444;2024-02-26T08:45:08;98230.54;;;10.71;61.24
59939;BME280;45801;51.810;19.444;2024-02-26T08:47:35;98228.30;;;10.80;60.51
59939;BME280;45801;51.810;19.444;2024-02-26T08:50:01;98229.07;;;10.88;60.34
59939;BME280;45801;51.810;19.444;2024-02-26T08:52:28;98231.04;;;10.97;60.35
59939;BME280;45801;51.810;19.444;2024-02-26T08:54:55;98227.86;;;11.03;60.34
59939;BME280;45801;51.810;19.444;2024-02-26T08:57:22;98228.61;;;11.12;59.70
59939;BME280;45801;51.810;19.444;2024-02-26T08:59:48;98227.80;;;11.22;60.20
59939;BME280;45801;51.810;19.444;2024-02-26T09:02:15;98226.71;;;11.35;59.47
59939;BME280;45801;51.810;19.444;2024-02-26T09:04:42;98226.29;;;11.46;59.38
59939;BME280;45801;51.810;19.444;2024-02-26T09:07:08;98227.23;;;11.56;58.88
59939;BME280;45801;51.810;19.444;2024-02-26T09:09:35;98226.45;;;11.69;59.25
59939;BME280;45801;51.810;19.444;2024-02-26T09:12:02;98228.31;;;11.82;59.06
59939;BME280;45801;51.810;19.444;2024-02-26T09:14:29;98226.83;;;11.93;59.09
59939;BME280;45801;51.810;19.444;2024-02-26T09:16:55;98227.80;;;12.05;59.25
59939;BME280;45801;51.810;19.444;2024-02-26T09:19:24;98225.21;;;12.15;56.03
59939;BME280;45801;51.810;19.444;2024-02-26T09:21:52;98225.31;;;12.21;56.15
59939;BME280;45801;51.810;19.444;2024-02-26T09:24:20;98227.19;;;12.26;56.76
59939;BME280;45801;51.810;19.444;2024-02-26T09:26:46;98229.45;;;12.34;57.60
59939;BME280;45801;51.810;19.444;2024-02-26T09:29:12;98228.62;;;12.45;57.46
59939;BME280;45801;51.810;19.444;2024-02-26T09:31:39;98227.38;;;12.54;56.94
59939;BME280;45801;51.810;19.444;2024-02-26T09:34:07;98221.89;;;12.61;56.82
59939;BME280;45801;51.810;19.444;2024-02-26T09:36:34;98222.86;;;12.66;56.40
59939;BME280;45801;51.810;19.444;2024-02-26T09:39:00;98222.41;;;12.70;56.37
59939;BME280;45801;51.810;19.444;2024-02-26T09:41:30;98223.55;;;12.74;56.27
59939;BME280;45801;51.810;19.444;2024-02-26T09:43:57;98220.98;;;12.78;55.57
59939;BME280;45801;51.810;19.444;2024-02-26T09:46:25;98223.65;;;12.80;55.25
59939;BME280;45801;51.810;19.444;2024-02-26T09:48:52;98227.42;;;12.84;54.98
59939;BME280;45801;51.810;19.444;2024-02-26T09:51:19;98228.20;;;12.89;55.18
59939;BME280;45801;51.810;19.444;2024-02-26T09:53:46;98228.32;;;12.95;55.28
59939;BME280;45801;51.810;19.444;2024-02-26T09:56:15;98225.94;;;13.00;55.06
59939;BME280;45801;51.810;19.444;2024-02-26T09:58:42;98225.36;;;13.07;54.68
59939;BME280;45801;51.810;19.444;2024-02-26T10:01:13;98229.14;;;13.13;54.37
59939;BME280;45801;51.810;19.444;2024-02-26T10:03:43;98226.77;;;13.19;54.89
59939;BME280;45801;51.810;19.444;2024-02-26T10:06:11;98224.10;;;13.27;54.59
59939;BME280;45801;51.810;19.444;2024-02-26T10:08:37;98222.69;;;13.35;54.31
59939;BME280;45801;51.810;19.444;2024-02-26T10:11:06;98224.21;;;13.42;53.88
59939;BME280;45801;51.810;19.444;2024-02-26T10:13:37;98221.15;;;13.49;52.94
59939;BME280;45801;51.810;19.444;2024-02-26T10:16:04;98221.80;;;13.57;53.78
59939;BME280;45801;51.810;19.444;2024-02-26T10:18:49;98224.79;;;13.69;53.69
59939;BME280;45801;51.810;19.444;2024-02-26T10:21:17;98222.12;;;13.80;51.08
59939;BME280;45801;51.810;19.444;2024-02-26T10:23:47;98224.02;;;13.90;51.96
59939;BME280;45801;51.810;19.444;2024-02-26T10:26:15;98224.17;;;14.01;51.99
59939;BME280;45801;51.810;19.444;2024-02-26T10:28:43;98222.92;;;14.12;51.98
59939;BME280;45801;51.810;19.444;2024-02-26T10:31:10;98224.98;;;14.23;51.83
59939;BME280;45801;51.810;19.444;2024-02-26T10:33:38;98221.09;;;14.35;51.18
59939;BME280;45801;51.810;19.444;2024-02-26T10:36:05;98220.30;;;14.43;50.60
59939;BME280;45801;51.810;19.444;2024-02-26T10:38:33;98219.91;;;14.55;52.04
59939;BME280;45801;51.810;19.444;2024-02-26T10:41:06;98220.98;;;14.71;53.31
59939;BME280;45801;51.810;19.444;2024-02-26T10:43:33;98219.23;;;14.89;52.93
59939;BME280;45801;51.810;19.444;2024-02-26T10:45:59;98219.42;;;15.08;54.02
59939;BME280;45801;51.810;19.444;2024-02-26T10:48:26;98217.09;;;15.25;51.66
59939;BME280;45801;51.810;19.444;2024-02-26T10:50:53;98213.50;;;15.38;51.02
59939;BME280;45801;51.810;19.444;2024-02-26T10:53:20;98211.64;;;15.52;51.18
59939;BME280;45801;51.810;19.444;2024-02-26T10:56:04;98211.73;;;15.62;48.40
59939;BME280;45801;51.810;19.444;2024-02-26T10:58:34;98212.63;;;15.65;47.12
59939;BME280;45801;51.810;19.444;2024-02-26T11:01:03;98210.36;;;15.67;45.33
59939;BME280;45801;51.810;19.444;2024-02-26T11:03:30;98206.66;;;15.69;44.53
59939;BME280;45801;51.810;19.444;2024-02-26T11:06:00;98207.20;;;15.73;45.79
59939;BME280;45801;51.810;19.444;2024-02-26T11:08:28;98208.48;;;15.78;44.83
59939;BME280;45801;51.810;19.444;2024-02-26T11:10:56;98209.42;;;15.83;44.96
59939;BME280;45801;51.810;19.444;2024-02-26T11:13:27;98207.50;;;15.88;44.20
59939;BME280;45801;51.810;19.444;2024-02-26T11:15:56;98207.15;;;15.89;43.09
59939;BME280;45801;51.810;19.444;2024-02-26T11:18:26;98208.24;;;15.95;44.70
59939;BME280;45801;51.810;19.444;2024-02-26T11:20:54;98205.10;;;16.02;42.80
59939;BME280;45801;51.810;19.444;2024-02-26T11:23:23;98203.20;;;16.10;43.75
59939;BME280;45801;51.810;19.444;2024-02-26T11:25:52;98198.46;;;16.16;42.86
59939;BME280;45801;51.810;19.444;2024-02-26T11:28:21;98196.54;;;16.21;42.62
59939;BME280;45801;51.810;19.444;2024-02-26T11:30:51;98195.31;;;16.25;43.22
59939;BME280;45801;51.810;19.444;2024-02-26T11:33:19;98197.98;;;16.30;43.34
59939;BME280;45801;51.810;19.444;2024-02-26T11:35:46;98196.76;;;16.36;41.71
59939;BME280;45801;51.810;19.444;2024-02-26T11:38:20;98195.36;;;16.41;42.30
59939;BME280;45801;51.810;19.444;2024-02-26T11:40:50;98193.44;;;16.47;42.51
59939;BME280;45801;51.810;19.444;2024-02-26T11:43:18;98190.09;;;16.50;41.30
59939;BME280;45801;51.810;19.444;2024-02-26T11:45:49;98192.05;;;16.54;41.08
59939;BME280;45801;51.810;19.444;2024-02-26T11:48:22;98189.77;;;16.58;43.11
59939;BME280;45801;51.810;19.444;2024-02-26T11:50:53;98187.12;;;16.62;42.54
59939;BME280;45801;51.810;19.444;2024-02-26T11:53:22;98191.55;;;16.63;42.73
59939;BME280;45801;51.810;19.444;2024-02-26T11:58:56;98194.19;;;16.58;42.08
59939;BME280;45801;51.810;19.444;2024-02-26T12:01:48;98195.95;;;16.59;42.78
59939;BME280;45801;51.810;19.444;2024-02-26T12:04:18;98192.61;;;16.59;42.41
59939;BME280;45801;51.810;19.444;2024-02-26T12:06:50;98194.37;;;16.54;42.86
59939;BME280;45801;51.810;19.444;2024-02-26T12:09:40;98196.45;;;16.54;42.20
59939;BME280;45801;51.810;19.444;2024-02-26T12:12:18;98190.30;;;16.56;41.67
59939;BME280;45801;51.810;19.444;2024-02-26T12:14:53;98187.98;;;16.54;40.91
59939;BME280;45801;51.810;19.444;2024-02-26T12:17:23;98191.51;;;16.48;42.31
59939;BME280;45801;51.810;19.444;2024-02-26T12:19:50;98194.67;;;16.43;43.51
59939;BME280;45801;51.810;19.444;2024-02-26T12:22:19;98190.77;;;16.39;43.06
59939;BME280;45801;51.810;19.444;2024-02-26T12:24:46;98191.47;;;16.36;42.73
59939;BME280;45801;51.810;19.444;2024-02-26T12:27:13;98196.23;;;16.33;42.94
59939;BME280;45801;51.810;19.444;2024-02-26T12:29:41;98196.92;;;16.29;43.39
59939;BME280;45801;51.810;19.444;2024-02-26T12:32:08;98197.95;;;16.23;43.03
59939;BME280;45801;51.810;19.444;2024-02-26T12:34:34;98198.45;;;16.15;42.84
59939;BME280;45801;51.810;19.444;2024-02-26T12:37:02;98190.99;;;16.07;43.70
59939;BME280;45801;51.810;19.444;2024-02-26T12:39:28;98197.14;;;16.00;43.41
59939;BME280;45801;51.810;19.444;2024-02-26T12:41:58;98200.66;;;15.98;43.96
59939;BME280;45801;51.810;19.444;2024-02-26T12:44:26;98199.76;;;15.95;43.60
59939;BME280;45801;51.810;19.444;2024-02-26T12:47:03;98198.70;;;15.92;44.50
59939;BME280;45801;51.810;19.444;2024-02-26T12:49:30;98196.56;;;15.87;45.07
59939;BME280;45801;51.810;19.444;2024-02-26T12:51:57;98198.86;;;15.90;45.31
59939;BME280;45801;51.810;19.444;2024-02-26T12:54:30;98197.99;;;15.91;44.94
59939;BME280;45801;51.810;19.444;2024-02-26T12:56:59;98197.98;;;15.91;45.20
59939;BME280;45801;51.810;19.444;2024-02-26T12:59:27;98199.41;;;15.93;45.17
59939;BME280;45801;51.810;19.444;2024-02-26T13:01:54;98201.17;;;15.94;45.52